createdAt,value
2018-10-17T00:01:45.737Z,4.37
2018-10-17T00:04:13.908Z,4.60
2018-10-17T00:06:42.101Z,4.93
2018-10-17T00:09:10.853Z,5.37
2018-10-17T00:11:39.202Z,4.93
2018-10-17T00:14:07.891Z,6.10
2018-10-17T00:16:36.384Z,5.33
2018-10-17T00:19:04.865Z,4.67
2018-10-17T00:21:33.008Z,3.97
2018-10-17T00:24:01.207Z,3.90
2018-10-17T00:26:29.625Z,4.20
2018-10-17T00:28:57.851Z,4.30
2018-10-17T00:31:26.190Z,5.10
2018-10-17T00:33:54.727Z,4.40
2018-10-17T00:36:22.921Z,3.67
2018-10-17T00:38:51.095Z,4.93
2018-10-17T00:41:19.295Z,4.87
2018-10-17T00:43:47.659Z,5.00
2018-10-17T00:46:15.861Z,4.60
2018-10-17T00:48:44.048Z,5.53
2018-10-17T00:51:12.226Z,4.90
2018-10-17T00:53:40.404Z,3.97
2018-10-17T00:56:08.864Z,5.37
2018-10-17T00:58:37.063Z,4.97
2018-10-17T01:01:05.329Z,5.70
2018-10-17T01:03:33.484Z,6.43
2018-10-17T01:06:01.678Z,4.80
2018-10-17T01:08:30.157Z,4.87
2018-10-17T01:10:58.415Z,5.33
2018-10-17T01:13:26.592Z,5.17
2018-10-17T01:15:54.801Z,3.97
2018-10-17T01:18:22.976Z,6.10
2018-10-17T01:20:51.156Z,5.80
2018-10-17T01:23:19.353Z,4.77
2018-10-17T01:25:47.530Z,4.40
2018-10-17T01:28:15.767Z,5.33
2018-10-17T01:30:43.944Z,6.33
2018-10-17T01:33:12.143Z,5.13
2018-10-17T01:38:22.891Z,6.10
2018-10-17T01:40:51.067Z,5.60
2018-10-17T01:43:19.340Z,5.57
2018-10-17T01:45:47.457Z,3.53
2018-10-17T01:48:15.630Z,5.53
2018-10-17T01:50:43.825Z,6.27
2018-10-17T01:53:12.081Z,4.00
2018-10-17T01:55:40.207Z,3.90
2018-10-17T01:58:08.395Z,5.93
2018-10-17T02:00:36.624Z,6.27
2018-10-17T02:03:04.876Z,5.07
2018-10-17T02:05:33.213Z,5.33
2018-10-17T02:08:02.022Z,5.80
2018-10-17T02:10:30.222Z,5.53
2018-10-17T02:12:58.528Z,4.17
2018-10-17T02:15:26.647Z,4.97
2018-10-17T02:17:54.840Z,7.10
2018-10-17T02:20:23.017Z,6.87
2018-10-17T02:22:51.347Z,5.90
2018-10-17T02:25:19.532Z,5.13
2018-10-17T02:27:47.736Z,5.80
2018-10-17T02:30:15.939Z,5.03
2018-10-17T02:32:44.146Z,4.50
2018-10-17T02:35:15.092Z,4.03
2018-10-17T02:37:43.535Z,4.10
2018-10-17T02:40:12.108Z,5.40
2018-10-17T02:42:40.531Z,5.40
2018-10-17T02:45:10.520Z,3.37
2018-10-17T02:47:38.760Z,4.90
2018-10-17T02:50:09.037Z,6.00
2018-10-17T02:52:38.991Z,6.50
2018-10-17T02:55:07.700Z,6.00
2018-10-17T02:57:36.349Z,4.83
2018-10-17T03:00:05.089Z,4.17
2018-10-17T03:02:33.319Z,4.53
2018-10-17T03:05:01.575Z,7.00
2018-10-17T03:07:29.763Z,7.20
2018-10-17T03:09:57.987Z,5.80
2018-10-17T03:12:26.178Z,5.40
2018-10-17T03:14:54.581Z,6.30
2018-10-17T03:17:22.745Z,6.30
2018-10-17T03:19:50.948Z,8.70
2018-10-17T03:22:19.150Z,5.67
2018-10-17T03:24:47.353Z,6.50
2018-10-17T03:27:15.587Z,5.53
2018-10-17T03:29:43.780Z,7.97
2018-10-17T03:32:11.970Z,4.90
2018-10-17T03:34:40.294Z,5.53
2018-10-17T03:37:08.537Z,5.13
2018-10-17T03:39:36.647Z,5.53
2018-10-17T03:42:04.939Z,4.10
2018-10-17T03:44:33.150Z,5.70
2018-10-17T03:47:01.559Z,3.70
2018-10-17T03:49:29.703Z,6.70
2018-10-17T03:51:57.887Z,3.67
2018-10-17T03:54:26.066Z,6.37
2018-10-17T03:56:54.292Z,6.37
2018-10-17T03:59:22.593Z,5.97
2018-10-17T04:01:50.756Z,7.47
2018-10-17T04:04:18.947Z,8.20
2018-10-17T04:06:47.138Z,6.33
2018-10-17T04:09:15.394Z,6.17
2018-10-17T04:11:43.580Z,5.13
2018-10-17T04:14:11.800Z,4.60
2018-10-17T04:16:39.982Z,5.37
2018-10-17T04:19:08.266Z,5.17
2018-10-17T04:21:36.380Z,5.90
2018-10-17T04:24:04.608Z,5.27
2018-10-17T04:26:32.800Z,4.57
2018-10-17T04:29:01.058Z,5.27
2018-10-17T04:31:29.806Z,4.20
2018-10-17T04:33:57.977Z,3.90
2018-10-17T04:36:26.185Z,4.50
2018-10-17T04:38:54.359Z,3.20
2018-10-17T04:41:22.540Z,4.57
2018-10-17T04:43:50.745Z,4.83
2018-10-17T04:46:18.944Z,7.90
2018-10-17T04:48:47.167Z,5.63
2018-10-17T04:51:15.350Z,5.50
2018-10-17T04:53:43.534Z,6.97
2018-10-17T04:56:11.724Z,4.97
2018-10-17T04:58:39.932Z,4.30
2018-10-17T05:01:08.178Z,4.73
2018-10-17T05:03:36.329Z,4.97
2018-10-17T05:06:04.680Z,4.57
2018-10-17T05:08:32.876Z,3.77
2018-10-17T05:11:01.116Z,5.70
2018-10-17T05:13:29.245Z,4.33
2018-10-17T05:15:57.427Z,5.53
2018-10-17T05:18:25.651Z,5.10
2018-10-17T05:20:53.854Z,5.20
2018-10-17T05:23:22.116Z,4.30
2018-10-17T05:25:50.288Z,3.77
2018-10-17T05:28:18.583Z,4.63
2018-10-17T05:30:46.758Z,7.03
2018-10-17T05:33:14.996Z,4.90
2018-10-17T05:35:43.208Z,6.37
2018-10-17T05:38:11.533Z,5.10
2018-10-17T05:40:39.596Z,5.63
2018-10-17T05:43:07.816Z,6.40
2018-10-17T05:45:35.956Z,4.17
2018-10-17T05:48:04.151Z,4.63
2018-10-17T05:50:32.328Z,4.30
2018-10-17T05:53:00.691Z,5.67
2018-10-17T05:55:28.867Z,7.27
2018-10-17T05:57:57.572Z,5.90
2018-10-17T06:00:25.770Z,5.17
2018-10-17T06:02:54.312Z,3.63
2018-10-17T06:05:22.503Z,4.80
2018-10-17T06:07:50.707Z,5.47
2018-10-17T06:10:19.002Z,5.63
2018-10-17T06:12:47.179Z,6.60
2018-10-17T06:15:15.355Z,6.83
2018-10-17T06:17:43.601Z,5.23
2018-10-17T06:20:11.781Z,5.00
2018-10-17T06:22:40.045Z,6.30
2018-10-17T06:25:08.875Z,4.87
2018-10-17T06:27:37.077Z,5.33
2018-10-17T06:30:06.628Z,6.63
2018-10-17T06:32:34.814Z,4.07
2018-10-17T06:35:03.038Z,5.73
2018-10-17T06:37:31.227Z,6.40
2018-10-17T06:39:59.433Z,6.50
2018-10-17T06:42:27.913Z,7.30
2018-10-17T06:44:56.125Z,6.47
2018-10-17T06:47:24.351Z,5.00
2018-10-17T06:49:52.537Z,5.37
2018-10-17T06:52:20.721Z,5.80
2018-10-17T06:54:48.934Z,4.70
2018-10-17T06:57:17.124Z,8.60
2018-10-17T06:59:45.393Z,5.63
2018-10-17T07:02:13.718Z,7.40
2018-10-17T07:04:41.861Z,6.97
2018-10-17T07:07:10.089Z,6.00
2018-10-17T07:09:38.249Z,5.00
2018-10-17T07:12:06.449Z,7.60
2018-10-17T07:14:35.137Z,4.43
2018-10-17T07:17:03.332Z,6.37
2018-10-17T07:19:31.535Z,5.80
2018-10-17T07:21:59.768Z,6.27
2018-10-17T07:24:27.987Z,6.80
2018-10-17T07:26:56.185Z,6.20
2018-10-17T07:29:24.536Z,6.03
2018-10-17T07:31:52.604Z,7.70
2018-10-17T07:34:20.813Z,5.73
2018-10-17T07:36:49.197Z,6.90
2018-10-17T07:39:17.391Z,6.43
2018-10-17T07:41:45.592Z,6.70
2018-10-17T07:44:13.782Z,6.30
2018-10-17T07:46:41.989Z,6.13
2018-10-17T07:49:10.494Z,5.40
2018-10-17T07:51:38.708Z,6.17
2018-10-17T07:54:06.963Z,6.73
2018-10-17T07:56:35.156Z,6.50
2018-10-17T07:59:03.358Z,5.97
2018-10-17T08:01:31.548Z,6.90
2018-10-17T08:03:59.760Z,6.40
2018-10-17T08:06:27.949Z,6.53
2018-10-17T08:08:56.152Z,7.47
2018-10-17T08:11:24.335Z,6.27
2018-10-17T08:13:52.521Z,6.80
2018-10-17T08:16:20.702Z,8.10
2018-10-17T08:18:48.894Z,6.70
2018-10-17T08:21:17.105Z,8.37
2018-10-17T08:23:45.293Z,7.00
2018-10-17T08:26:13.518Z,6.77
2018-10-17T08:28:41.698Z,8.47
2018-10-17T08:31:09.886Z,7.33
2018-10-17T08:33:38.104Z,6.97
2018-10-17T08:36:06.539Z,6.30
2018-10-17T08:38:34.466Z,7.03
2018-10-17T08:41:02.690Z,7.37
2018-10-17T08:43:30.871Z,8.30
2018-10-17T08:45:59.068Z,7.20
2018-10-17T08:48:27.282Z,7.97
2018-10-17T08:50:55.477Z,7.50
2018-10-17T08:53:23.714Z,7.13
2018-10-17T08:55:51.903Z,8.10
2018-10-17T08:58:20.108Z,6.47
2018-10-17T09:00:48.297Z,7.27
2018-10-17T09:03:16.464Z,7.50
2018-10-17T09:05:44.658Z,10.50
2018-10-17T09:08:12.864Z,9.27
2018-10-17T09:10:41.038Z,7.03
2018-10-17T09:13:09.218Z,6.03
2018-10-17T09:15:38.542Z,7.67
2018-10-17T09:18:05.818Z,8.60
2018-10-17T09:20:34.248Z,8.40
2018-10-17T09:23:02.199Z,8.23
2018-10-17T09:25:30.506Z,7.03
2018-10-17T09:27:58.693Z,7.40
2018-10-17T09:30:26.909Z,7.47
2018-10-17T09:32:55.223Z,6.80
2018-10-17T09:35:23.411Z,7.37
2018-10-17T09:37:51.600Z,7.17
2018-10-17T09:40:19.858Z,6.70
2018-10-17T09:42:48.048Z,7.73
2018-10-17T09:45:16.234Z,8.27
2018-10-17T09:47:44.447Z,8.70
2018-10-17T09:50:12.642Z,8.37
2018-10-17T09:52:40.896Z,8.00
2018-10-17T09:55:09.479Z,8.03
2018-10-17T09:57:37.666Z,7.10
2018-10-17T10:00:11.586Z,6.87
2018-10-17T10:02:39.721Z,9.80
2018-10-17T10:05:07.935Z,6.07
2018-10-17T10:07:36.134Z,6.23
2018-10-17T10:10:04.730Z,8.67
2018-10-17T10:12:32.882Z,7.30
2018-10-17T10:15:01.073Z,7.67
2018-10-17T10:17:29.287Z,6.53
2018-10-17T10:19:57.491Z,6.50
2018-10-17T10:22:25.714Z,7.40
2018-10-17T10:24:53.974Z,7.67
2018-10-17T10:27:22.109Z,6.20
2018-10-17T10:29:50.352Z,7.20
2018-10-17T10:32:18.486Z,6.70
2018-10-17T10:34:46.668Z,7.30
2018-10-17T10:37:14.867Z,7.33
2018-10-17T10:39:43.084Z,8.27
2018-10-17T10:42:11.383Z,7.47
2018-10-17T10:44:39.507Z,7.27
2018-10-17T10:47:07.703Z,6.50
2018-10-17T10:49:35.900Z,6.93
2018-10-17T10:52:04.127Z,7.80
2018-10-17T10:54:32.328Z,7.27
2018-10-17T10:57:00.562Z,6.97
2018-10-17T10:59:28.889Z,7.53
2018-10-17T11:01:56.960Z,7.13
2018-10-17T11:04:25.150Z,6.63
2018-10-17T11:06:53.307Z,6.50
2018-10-17T11:09:21.494Z,6.40
2018-10-17T11:11:49.696Z,8.27
2018-10-17T11:14:18.310Z,7.40
2018-10-17T11:16:46.242Z,7.00
2018-10-17T11:19:14.451Z,7.50
2018-10-17T11:21:42.678Z,7.10
2018-10-17T11:24:10.886Z,5.77
2018-10-17T11:26:39.096Z,7.63
2018-10-17T11:29:07.348Z,6.43
2018-10-17T11:31:35.486Z,6.47
2018-10-17T11:34:03.657Z,6.90
2018-10-17T11:36:31.849Z,7.40
2018-10-17T11:39:00.089Z,8.27
2018-10-17T11:41:28.271Z,6.40
2018-10-17T11:43:56.423Z,6.57
2018-10-17T11:46:24.627Z,5.60
2018-10-17T11:48:52.807Z,6.60
2018-10-17T11:51:21.014Z,5.73
2018-10-17T11:53:49.221Z,5.73
2018-10-17T11:56:17.396Z,6.17
2018-10-17T11:58:45.600Z,6.30
2018-10-17T12:01:13.794Z,6.53
2018-10-17T12:03:42.013Z,6.40
2018-10-17T12:06:10.240Z,5.73
2018-10-17T12:08:38.403Z,7.43
2018-10-17T12:11:06.632Z,7.43
2018-10-17T12:13:34.797Z,6.57
2018-10-17T12:16:03.001Z,5.37
2018-10-17T12:18:31.185Z,5.40
2018-10-17T12:20:59.429Z,6.50
2018-10-17T12:23:27.568Z,7.67
2018-10-17T12:25:56.279Z,7.63
2018-10-17T12:28:24.523Z,5.93
2018-10-17T12:30:52.696Z,6.17
2018-10-17T12:33:20.895Z,6.43
2018-10-17T12:35:49.141Z,6.07
2018-10-17T12:38:17.334Z,5.13
2018-10-17T12:40:45.679Z,5.33
2018-10-17T12:43:13.793Z,5.33
2018-10-17T12:45:42.012Z,4.60
2018-10-17T12:48:10.145Z,6.07
2018-10-17T12:50:38.347Z,5.93
2018-10-17T12:53:06.774Z,7.03
2018-10-17T12:55:34.867Z,5.30
2018-10-17T12:58:03.064Z,5.27
2018-10-17T13:00:31.269Z,5.53
2018-10-17T13:02:59.497Z,4.07
2018-10-17T13:05:27.709Z,5.63
2018-10-17T13:07:55.929Z,4.90
2018-10-17T13:10:24.095Z,5.10
2018-10-17T13:12:52.473Z,5.07
2018-10-17T13:15:20.643Z,5.10
2018-10-17T13:17:48.847Z,4.20
2018-10-17T13:20:17.060Z,5.03
2018-10-17T13:22:45.343Z,5.70
2018-10-17T13:25:13.582Z,4.50
2018-10-17T13:27:41.753Z,4.70
2018-10-17T13:30:09.944Z,4.60
2018-10-17T13:32:38.447Z,4.00
2018-10-17T13:35:07.311Z,4.50
2018-10-17T13:37:35.502Z,3.93
2018-10-17T13:40:03.694Z,3.63
2018-10-17T13:42:31.912Z,3.70
2018-10-17T13:45:00.417Z,3.77
2018-10-17T13:47:28.616Z,3.80
2018-10-17T13:49:57.074Z,3.97
2018-10-17T13:52:25.533Z,4.60
2018-10-17T13:54:53.891Z,4.20
2018-10-17T13:57:22.543Z,3.70
2018-10-17T13:59:50.923Z,3.10
2018-10-17T14:02:19.923Z,4.27
2018-10-17T14:04:48.104Z,3.67
2018-10-17T14:07:16.779Z,5.20
2018-10-17T14:09:44.923Z,3.40
2018-10-17T14:12:13.228Z,4.40
2018-10-17T14:14:42.684Z,4.50
2018-10-17T14:17:11.478Z,4.27
2018-10-17T14:19:39.686Z,3.53
2018-10-17T14:22:08.921Z,3.73
2018-10-17T14:24:37.637Z,4.43
2018-10-17T14:27:06.347Z,4.00
2018-10-17T14:29:34.553Z,3.60
2018-10-17T14:32:02.704Z,4.07
2018-10-17T14:34:30.907Z,3.80
2018-10-17T14:36:59.117Z,5.20
2018-10-17T14:39:27.375Z,3.90
2018-10-17T14:41:55.517Z,4.70
2018-10-17T14:44:23.668Z,4.43
2018-10-17T14:46:51.850Z,4.83
2018-10-17T14:49:20.102Z,3.30
2018-10-17T14:51:48.319Z,3.40
2018-10-17T14:54:16.588Z,3.60
2018-10-17T14:56:44.782Z,2.90
2018-10-17T14:59:13.088Z,3.13
2018-10-17T15:01:41.167Z,4.30
2018-10-17T15:04:09.372Z,4.20
2018-10-17T15:06:37.592Z,4.97
2018-10-17T15:09:07.593Z,3.77
2018-10-17T15:11:36.252Z,3.63
2018-10-17T15:14:04.455Z,3.50
2018-10-17T15:16:32.634Z,3.77
2018-10-17T15:19:00.855Z,4.13
2018-10-17T15:21:29.037Z,3.93
2018-10-17T15:23:57.347Z,3.37
2018-10-17T15:26:25.561Z,3.43
2018-10-17T15:28:53.754Z,4.20
2018-10-17T15:31:22.066Z,4.30
2018-10-17T15:33:50.180Z,3.20
2018-10-17T15:36:18.521Z,3.77
2018-10-17T15:38:46.636Z,4.30
2018-10-17T15:41:14.873Z,3.73
2018-10-17T15:43:43.257Z,3.43
2018-10-17T15:46:11.403Z,4.17
2018-10-17T15:48:39.645Z,3.70
2018-10-17T15:51:07.930Z,3.90
2018-10-17T15:53:36.133Z,4.83
2018-10-17T15:56:04.573Z,3.57
2018-10-17T15:58:32.793Z,3.77
2018-10-17T16:01:01.065Z,4.73
2018-10-17T16:03:29.236Z,3.20
2018-10-17T16:06:04.984Z,4.73
2018-10-17T16:08:33.136Z,4.83
2018-10-17T16:11:01.312Z,4.07
2018-10-17T16:13:29.507Z,3.87
2018-10-17T16:15:57.718Z,3.70
2018-10-17T16:18:25.906Z,4.10
2018-10-17T16:20:54.096Z,3.37
2018-10-17T16:23:22.336Z,3.53
2018-10-17T16:25:50.501Z,3.80
2018-10-17T16:28:18.672Z,3.40
2018-10-17T16:30:46.923Z,4.40
2018-10-17T16:33:15.106Z,3.80
2018-10-17T16:35:43.296Z,3.33
2018-10-17T16:38:11.563Z,4.00
2018-10-17T16:40:39.724Z,4.90
2018-10-17T16:43:07.979Z,3.90
2018-10-17T16:45:36.170Z,3.17
2018-10-17T16:48:04.458Z,3.80
2018-10-17T16:50:32.631Z,3.93
2018-10-17T16:53:00.856Z,5.10
2018-10-17T16:55:29.038Z,4.17
2018-10-17T16:57:57.230Z,4.03
2018-10-17T17:00:25.422Z,4.90
2018-10-17T17:02:54.053Z,4.43
2018-10-17T17:05:22.258Z,4.47
2018-10-17T17:07:50.422Z,4.20
2018-10-17T17:10:18.652Z,3.67
2018-10-17T17:12:47.791Z,4.00
2018-10-17T17:15:16.044Z,5.43
2018-10-17T17:17:44.188Z,4.13
2018-10-17T17:20:12.740Z,5.37
2018-10-17T17:22:41.504Z,4.00
2018-10-17T17:25:09.897Z,5.50
2018-10-17T17:27:38.757Z,5.07
2018-10-17T17:30:11.591Z,4.47
2018-10-17T17:32:39.966Z,4.77
2018-10-17T17:35:08.135Z,6.23
2018-10-17T17:37:36.558Z,3.70
2018-10-17T17:40:05.615Z,4.20
2018-10-17T17:42:33.850Z,4.30
2018-10-17T17:45:02.053Z,4.20
2018-10-17T17:47:30.265Z,5.53
2018-10-17T17:49:58.418Z,3.60
2018-10-17T17:52:26.680Z,4.33
2018-10-17T17:54:54.855Z,3.47
2018-10-17T17:57:23.028Z,5.30
2018-10-17T17:59:51.230Z,4.23
2018-10-17T18:02:19.435Z,3.90
2018-10-17T18:04:47.630Z,5.50
2018-10-17T18:07:15.838Z,4.50
2018-10-17T18:09:44.026Z,4.57
2018-10-17T18:12:12.234Z,3.63
2018-10-17T18:14:40.430Z,4.80
2018-10-17T18:17:08.613Z,4.27
2018-10-17T18:19:36.853Z,4.90
2018-10-17T18:22:05.196Z,4.10
2018-10-17T18:24:33.251Z,3.63
2018-10-17T18:27:01.445Z,4.43
2018-10-17T18:29:29.635Z,3.77
2018-10-17T18:31:57.838Z,5.47
2018-10-17T18:34:26.026Z,4.70
2018-10-17T18:36:54.207Z,4.33
2018-10-17T18:39:22.403Z,6.73
2018-10-17T18:41:50.596Z,6.27
2018-10-17T18:44:18.810Z,5.10
2018-10-17T18:46:47.005Z,5.97
2018-10-17T18:49:15.216Z,5.40
2018-10-17T18:51:43.389Z,5.80
2018-10-17T18:54:11.605Z,6.20
2018-10-17T18:56:39.811Z,5.43
2018-10-17T18:59:08.007Z,6.20
2018-10-17T19:01:36.336Z,7.03
2018-10-17T19:04:04.415Z,5.13
2018-10-17T19:06:32.620Z,5.00
2018-10-17T19:09:00.900Z,5.63
2018-10-17T19:11:29.054Z,4.30
2018-10-17T19:13:57.245Z,5.67
2018-10-17T19:16:26.346Z,5.60
2018-10-17T19:18:54.546Z,6.87
2018-10-17T19:21:22.734Z,5.27
2018-10-17T19:23:50.939Z,5.37
2018-10-17T19:26:19.963Z,5.83
2018-10-17T19:28:48.217Z,5.60
2018-10-17T19:31:16.400Z,5.63
2018-10-17T19:33:44.584Z,4.73
2018-10-17T19:36:12.875Z,4.17
2018-10-17T19:38:40.970Z,4.30
2018-10-17T19:41:09.244Z,5.10
2018-10-17T19:43:37.455Z,4.10
2018-10-17T19:46:05.670Z,3.93
2018-10-17T19:48:33.877Z,4.30
2018-10-17T19:51:02.081Z,4.53
2018-10-17T19:53:30.447Z,3.67
2018-10-17T19:55:58.678Z,4.20
2018-10-17T19:58:26.870Z,5.27
2018-10-17T20:00:55.062Z,4.47
2018-10-17T20:03:23.255Z,4.97
2018-10-17T20:05:51.538Z,4.80
2018-10-17T20:08:19.755Z,4.83
2018-10-17T20:10:47.943Z,4.10
2018-10-17T20:13:16.144Z,4.93
2018-10-17T20:15:44.350Z,4.53
2018-10-17T20:18:12.571Z,4.43
2018-10-17T20:20:40.753Z,5.10
2018-10-17T20:23:09.008Z,4.93
2018-10-17T20:25:37.196Z,5.23
2018-10-17T20:28:05.509Z,5.03
2018-10-17T20:30:33.775Z,5.50
2018-10-17T20:33:02.033Z,5.57
2018-10-17T20:35:30.185Z,5.50
2018-10-17T20:37:58.351Z,5.17
2018-10-17T20:40:26.538Z,5.73
2018-10-17T20:42:55.049Z,5.53
2018-10-17T20:45:23.227Z,4.90
2018-10-17T20:47:51.445Z,4.57
2018-10-17T20:50:19.643Z,5.13
2018-10-17T20:52:47.901Z,6.20
2018-10-17T20:55:16.089Z,4.67
2018-10-17T20:57:44.279Z,6.93
2018-10-17T21:00:12.493Z,5.37
2018-10-17T21:02:40.710Z,5.37
2018-10-17T21:05:08.943Z,7.90
2018-10-17T21:07:37.182Z,6.70
2018-10-17T21:10:06.712Z,4.83
2018-10-17T21:12:34.947Z,5.27
2018-10-17T21:15:03.137Z,5.20
2018-10-17T21:17:31.331Z,4.90
2018-10-17T21:19:59.550Z,5.50
2018-10-17T21:22:27.749Z,6.00
2018-10-17T21:24:55.944Z,5.87
2018-10-17T21:27:24.128Z,5.47
2018-10-17T21:29:52.344Z,6.87
2018-10-17T21:32:20.536Z,6.07
2018-10-17T21:34:48.765Z,6.60
2018-10-17T21:37:16.971Z,4.60
2018-10-17T21:39:45.158Z,5.90
2018-10-17T21:42:13.347Z,5.80
2018-10-17T21:44:41.540Z,4.67
2018-10-17T21:47:09.745Z,5.53
2018-10-17T21:49:37.924Z,6.50
2018-10-17T21:52:06.129Z,5.07
2018-10-17T21:54:34.324Z,4.40
2018-10-17T21:57:02.501Z,6.73
2018-10-17T21:59:30.697Z,6.67
2018-10-17T22:01:58.925Z,5.20
2018-10-17T22:04:27.100Z,6.27
2018-10-17T22:06:55.295Z,4.40
2018-10-17T22:09:23.513Z,4.90
2018-10-17T22:11:51.703Z,6.17
2018-10-17T22:14:19.895Z,6.27
2018-10-17T22:16:53.391Z,6.17
2018-10-17T22:19:21.740Z,4.40
2018-10-17T22:21:49.801Z,5.37
2018-10-17T22:24:17.977Z,6.30
2018-10-17T22:26:46.171Z,4.77
2018-10-17T22:29:14.369Z,6.03
2018-10-17T22:31:43.947Z,5.10
2018-10-17T22:34:12.158Z,5.60
2018-10-17T22:36:40.355Z,5.40
2018-10-17T22:39:10.403Z,5.37
2018-10-17T22:41:38.643Z,5.33
2018-10-17T22:44:06.915Z,6.33
2018-10-17T22:46:35.113Z,4.43
2018-10-17T22:49:03.499Z,5.73
2018-10-17T22:51:31.731Z,4.40
2018-10-17T22:54:00.062Z,5.30
2018-10-17T22:56:28.255Z,6.47
2018-10-17T22:58:56.456Z,6.40
2018-10-17T23:01:24.616Z,4.80
2018-10-17T23:03:52.808Z,4.40
2018-10-17T23:06:21.026Z,3.53
2018-10-17T23:08:49.219Z,6.13
2018-10-17T23:11:17.462Z,5.10
2018-10-17T23:13:45.656Z,4.60
2018-10-17T23:16:13.867Z,6.23
2018-10-17T23:18:42.050Z,4.77
2018-10-17T23:21:10.268Z,6.23
2018-10-17T23:23:38.462Z,5.50
2018-10-17T23:26:07.649Z,4.73
2018-10-17T23:28:36.007Z,5.50
2018-10-17T23:31:04.235Z,5.90
2018-10-17T23:33:32.483Z,5.90
2018-10-17T23:36:00.713Z,4.73
2018-10-17T23:38:28.913Z,6.23
2018-10-17T23:40:57.082Z,4.77
2018-10-17T23:43:25.336Z,6.20
2018-10-17T23:45:53.563Z,4.60
2018-10-17T23:48:21.751Z,4.40
2018-10-17T23:50:49.919Z,5.43
2018-10-17T23:53:18.106Z,6.53
2018-10-17T23:55:46.317Z,6.30
2018-10-17T23:58:14.502Z,5.10
